sensor_id;sensor_type;location;lat;lon;timestamp;temperature;humidity
6293;DHT22;3179;54.350;10.102;2022-11-20T00:01:31;4.50;99.90
6293;DHT22;3179;54.350;10.102;2022-11-20T00:03:58;4.50;99.90
6293;DHT22;3179;54.350;10.102;2022-11-20T00:06:26;4.50;99.90
6293;DHT22;3179;54.350;10.102;2022-11-20T00:08:54;4.40;99.90
6293;DHT22;3179;54.350;10.102;2022-11-20T00:11:23;4.40;99.90
6293;DHT22;3179;54.350;10.102;2022-11-20T00:13:52;4.40;99.90
6293;DHT22;3179;54.350;10.102;2022-11-20T00:16:21;4.40;99.90
6293;DHT22;3179;54.350;10.102;2022-11-20T00:18:50;4.40;99.90
6293;DHT22;3179;54.350;10.102;2022-11-20T00:21:19;4.50;99.90
6293;DHT22;3179;54.350;10.102;2022-11-20T00:23:47;4.40;99.90
6293;DHT22;3179;54.350;10.102;2022-11-20T00:26:15;4.40;99.90
6293;DHT22;3179;54.350;10.102;2022-11-20T00:28:43;4.40;99.90
6293;DHT22;3179;54.350;10.102;2022-11-20T00:31:12;4.40;99.90
6293;DHT22;3179;54.350;10.102;2022-11-20T00:33:40;4.40;99.90
6293;DHT22;3179;54.350;10.102;2022-11-20T00:36:10;4.40;99.90
6293;DHT22;3179;54.350;10.102;2022-11-20T00:38:37;4.40;99.90
6293;DHT22;3179;54.350;10.102;2022-11-20T00:41:06;4.40;99.90
6293;DHT22;3179;54.350;10.102;2022-11-20T00:43:34;4.40;99.90
6293;DHT22;3179;54.350;10.102;2022-11-20T00:46:02;4.40;99.90
6293;DHT22;3179;54.350;10.102;2022-11-20T00:48:29;4.40;99.90
6293;DHT22;3179;54.350;10.102;2022-11-20T00:50:56;4.40;99.90
6293;DHT22;3179;54.350;10.102;2022-11-20T00:53:24;4.40;99.90
6293;DHT22;3179;54.350;10.102;2022-11-20T00:55:55;4.40;99.90
6293;DHT22;3179;54.350;10.102;2022-11-20T00:58:22;4.40;99.90
6293;DHT22;3179;54.350;10.102;2022-11-20T01:00:49;4.40;99.90
6293;DHT22;3179;54.350;10.102;2022-11-20T01:03:16;4.40;99.90
6293;DHT22;3179;54.350;10.102;2022-11-20T01:05:43;4.40;99.90
6293;DHT22;3179;54.350;10.102;2022-11-20T01:08:10;4.40;99.90
6293;DHT22;3179;54.350;10.102;2022-11-20T01:10:38;4.40;99.90
6293;DHT22;3179;54.350;10.102;2022-11-20T01:13:05;4.40;99.90
6293;DHT22;3179;54.350;10.102;2022-11-20T01:15:49;4.30;99.90
6293;DHT22;3179;54.350;10.102;2022-11-20T01:18:16;4.40;99.90
6293;DHT22;3179;54.350;10.102;2022-11-20T01:20:43;4.40;99.90
6293;DHT22;3179;54.350;10.102;2022-11-20T01:23:09;4.40;99.90
6293;DHT22;3179;54.350;10.102;2022-11-20T01:25:37;4.40;99.90
6293;DHT22;3179;54.350;10.102;2022-11-20T01:28:04;4.40;99.90
6293;DHT22;3179;54.350;10.102;2022-11-20T01:30:31;4.40;99.90
6293;DHT22;3179;54.350;10.102;2022-11-20T01:32:58;4.40;99.90
6293;DHT22;3179;54.350;10.102;2022-11-20T01:35:24;4.40;99.90
6293;DHT22;3179;54.350;10.102;2022-11-20T01:37:51;4.40;99.90
6293;DHT22;3179;54.350;10.102;2022-11-20T01:40:18;4.40;99.90
6293;DHT22;3179;54.350;10.102;2022-11-20T01:42:51;4.40;99.90
6293;DHT22;3179;54.350;10.102;2022-11-20T01:45:58;4.40;99.90
6293;DHT22;3179;54.350;10.102;2022-11-20T01:48:28;4.40;99.90
6293;DHT22;3179;54.350;10.102;2022-11-20T01:50:57;4.40;99.90
6293;DHT22;3179;54.350;10.102;2022-11-20T01:53:30;4.40;99.90
6293;DHT22;3179;54.350;10.102;2022-11-20T01:56:01;4.40;99.90
6293;DHT22;3179;54.350;10.102;2022-11-20T01:58:33;4.40;99.90
6293;DHT22;3179;54.350;10.102;2022-11-20T02:01:02;4.40;99.90
6293;DHT22;3179;54.350;10.102;2022-11-20T02:03:29;4.40;99.90
6293;DHT22;3179;54.350;10.102;2022-11-20T02:06:04;4.40;99.90
6293;DHT22;3179;54.350;10.102;2022-11-20T02:08:32;4.40;99.90
6293;DHT22;3179;54.350;10.102;2022-11-20T02:10:59;4.40;99.90
6293;DHT22;3179;54.350;10.102;2022-11-20T02:13:26;4.40;99.90
6293;DHT22;3179;54.350;10.102;2022-11-20T02:16:21;4.40;99.90
6293;DHT22;3179;54.350;10.102;2022-11-20T02:18:48;4.40;99.90
6293;DHT22;3179;54.350;10.102;2022-11-20T02:21:28;4.40;99.90
6293;DHT22;3179;54.350;10.102;2022-11-20T02:24:06;4.40;99.90
6293;DHT22;3179;54.350;10.102;2022-11-20T02:26:41;4.40;99.90
6293;DHT22;3179;54.350;10.102;2022-11-20T02:29:09;4.40;99.90
6293;DHT22;3179;54.350;10.102;2022-11-20T02:31:41;4.40;99.90
6293;DHT22;3179;54.350;10.102;2022-11-20T02:34:08;4.40;99.90
6293;DHT22;3179;54.350;10.102;2022-11-20T02:36:36;4.40;99.90
6293;DHT22;3179;54.350;10.102;2022-11-20T02:39:06;4.40;99.90
6293;DHT22;3179;54.350;10.102;2022-11-20T02:41:34;4.40;99.90
6293;DHT22;3179;54.350;10.102;2022-11-20T02:44:02;4.40;99.90
6293;DHT22;3179;54.350;10.102;2022-11-20T02:46:29;4.40;99.90
6293;DHT22;3179;54.350;10.102;2022-11-20T02:48:57;4.40;99.90
6293;DHT22;3179;54.350;10.102;2022-11-20T02:51:24;4.30;99.90
6293;DHT22;3179;54.350;10.102;2022-11-20T02:53:51;4.30;99.90
6293;DHT22;3179;54.350;10.102;2022-11-20T02:56:19;4.30;99.90
6293;DHT22;3179;54.350;10.102;2022-11-20T02:58:46;4.30;99.90
6293;DHT22;3179;54.350;10.102;2022-11-20T03:01:13;4.30;99.90
6293;DHT22;3179;54.350;10.102;2022-11-20T03:03:40;4.30;99.90
6293;DHT22;3179;54.350;10.102;2022-11-20T03:06:07;4.30;99.90
6293;DHT22;3179;54.350;10.102;2022-11-20T03:08:34;4.30;99.90
6293;DHT22;3179;54.350;10.102;2022-11-20T03:11:06;4.30;99.90
6293;DHT22;3179;54.350;10.102;2022-11-20T03:13:35;4.30;99.90
6293;DHT22;3179;54.350;10.102;2022-11-20T03:16:09;4.30;99.90
6293;DHT22;3179;54.350;10.102;2022-11-20T03:18:37;4.30;99.90
6293;DHT22;3179;54.350;10.102;2022-11-20T03:21:04;4.30;99.90
6293;DHT22;3179;54.350;10.102;2022-11-20T03:23:31;4.30;99.90
6293;DHT22;3179;54.350;10.102;2022-11-20T03:26:13;4.30;99.90
6293;DHT22;3179;54.350;10.102;2022-11-20T03:28:42;4.30;99.90
6293;DHT22;3179;54.350;10.102;2022-11-20T03:31:13;4.30;99.90
6293;DHT22;3179;54.350;10.102;2022-11-20T03:33:41;4.30;99.90
6293;DHT22;3179;54.350;10.102;2022-11-20T03:36:18;4.30;99.90
6293;DHT22;3179;54.350;10.102;2022-11-20T03:38:46;4.30;99.90
6293;DHT22;3179;54.350;10.102;2022-11-20T03:41:14;4.30;99.90
6293;DHT22;3179;54.350;10.102;2022-11-20T03:43:47;4.20;99.90
6293;DHT22;3179;54.350;10.102;2022-11-20T03:46:13;4.20;99.90
6293;DHT22;3179;54.350;10.102;2022-11-20T03:48:40;4.20;99.90
6293;DHT22;3179;54.350;10.102;2022-11-20T03:51:09;4.20;99.90
6293;DHT22;3179;54.350;10.102;2022-11-20T03:53:36;4.20;99.90
6293;DHT22;3179;54.350;10.102;2022-11-20T03:56:04;4.20;99.90
6293;DHT22;3179;54.350;10.102;2022-11-20T03:58:30;4.20;99.90
6293;DHT22;3179;54.350;10.102;2022-11-20T04:01:04;4.20;99.90
6293;DHT22;3179;54.350;10.102;2022-11-20T04:03:31;4.20;99.90
6293;DHT22;3179;54.350;10.102;2022-11-20T04:06:02;4.20;99.90
6293;DHT22;3179;54.350;10.102;2022-11-20T04:08:28;4.20;99.90
6293;DHT22;3179;54.350;10.102;2022-11-20T04:10:55;4.20;99.90
6293;DHT22;3179;54.350;10.102;2022-11-20T04:13:22;4.20;99.90
6293;DHT22;3179;54.350;10.102;2022-11-20T04:15:49;4.20;99.90
6293;DHT22;3179;54.350;10.102;2022-11-20T04:18:17;4.10;99.90
6293;DHT22;3179;54.350;10.102;2022-11-20T04:20:43;4.20;99.90
6293;DHT22;3179;54.350;10.102;2022-11-20T04:23:10;4.20;99.90
6293;DHT22;3179;54.350;10.102;2022-11-20T04:25:37;4.10;99.90
6293;DHT22;3179;54.350;10.102;2022-11-20T04:28:04;4.20;99.90
6293;DHT22;3179;54.350;10.102;2022-11-20T04:30:31;4.20;99.90
6293;DHT22;3179;54.350;10.102;2022-11-20T04:32:57;4.20;99.90
6293;DHT22;3179;54.350;10.102;2022-11-20T04:35:25;4.20;99.90
6293;DHT22;3179;54.350;10.102;2022-11-20T04:37:52;4.20;99.90
6293;DHT22;3179;54.350;10.102;2022-11-20T04:40:19;4.20;99.90
6293;DHT22;3179;54.350;10.102;2022-11-20T04:42:46;4.10;99.90
6293;DHT22;3179;54.350;10.102;2022-11-20T04:45:12;4.10;99.90
6293;DHT22;3179;54.350;10.102;2022-11-20T04:47:39;4.10;99.90
6293;DHT22;3179;54.350;10.102;2022-11-20T04:50:06;4.20;99.90
6293;DHT22;3179;54.350;10.102;2022-11-20T04:52:35;4.10;99.90
6293;DHT22;3179;54.350;10.102;2022-11-20T04:55:02;4.10;99.90
6293;DHT22;3179;54.350;10.102;2022-11-20T04:57:28;4.10;99.90
6293;DHT22;3179;54.350;10.102;2022-11-20T04:59:55;4.10;99.90
6293;DHT22;3179;54.350;10.102;2022-11-20T05:02:23;4.10;99.90
6293;DHT22;3179;54.350;10.102;2022-11-20T05:04:49;4.10;99.90
6293;DHT22;3179;54.350;10.102;2022-11-20T05:07:16;4.10;99.90
6293;DHT22;3179;54.350;10.102;2022-11-20T05:09:45;4.10;99.90
6293;DHT22;3179;54.350;10.102;2022-11-20T05:12:11;4.10;99.90
6293;DHT22;3179;54.350;10.102;2022-11-20T05:14:38;4.10;99.90
6293;DHT22;3179;54.350;10.102;2022-11-20T05:17:05;4.10;99.90
6293;DHT22;3179;54.350;10.102;2022-11-20T05:19:32;4.10;99.90
6293;DHT22;3179;54.350;10.102;2022-11-20T05:21:58;4.10;99.90
6293;DHT22;3179;54.350;10.102;2022-11-20T05:24:25;4.10;99.90
6293;DHT22;3179;54.350;10.102;2022-11-20T05:26:53;4.10;99.90
6293;DHT22;3179;54.350;10.102;2022-11-20T05:29:20;4.10;99.90
6293;DHT22;3179;54.350;10.102;2022-11-20T05:31:46;4.10;99.90
6293;DHT22;3179;54.350;10.102;2022-11-20T05:34:13;4.10;99.90
6293;DHT22;3179;54.350;10.102;2022-11-20T05:36:40;4.10;99.90
6293;DHT22;3179;54.350;10.102;2022-11-20T05:39:07;4.10;99.90
6293;DHT22;3179;54.350;10.102;2022-11-20T05:41:34;4.10;99.90
6293;DHT22;3179;54.350;10.102;2022-11-20T05:44:02;4.10;99.90
6293;DHT22;3179;54.350;10.102;2022-11-20T05:46:28;4.10;99.90
6293;DHT22;3179;54.350;10.102;2022-11-20T05:48:56;4.10;99.90
6293;DHT22;3179;54.350;10.102;2022-11-20T05:51:23;4.10;99.90
6293;DHT22;3179;54.350;10.102;2022-11-20T05:53:50;4.10;99.90
6293;DHT22;3179;54.350;10.102;2022-11-20T05:56:19;4.10;99.90
6293;DHT22;3179;54.350;10.102;2022-11-20T05:58:46;4.10;99.90
6293;DHT22;3179;54.350;10.102;2022-11-20T06:01:16;4.00;99.90
6293;DHT22;3179;54.350;10.102;2022-11-20T06:03:44;4.10;99.90
6293;DHT22;3179;54.350;10.102;2022-11-20T06:06:13;4.00;99.90
6293;DHT22;3179;54.350;10.102;2022-11-20T06:08:40;4.00;99.90
6293;DHT22;3179;54.350;10.102;2022-11-20T06:11:09;4.00;99.90
6293;DHT22;3179;54.350;10.102;2022-11-20T06:13:36;4.00;99.90
6293;DHT22;3179;54.350;10.102;2022-11-20T06:16:04;4.00;99.90
6293;DHT22;3179;54.350;10.102;2022-11-20T06:18:32;4.00;99.90
6293;DHT22;3179;54.350;10.102;2022-11-20T06:21:00;4.00;99.90
6293;DHT22;3179;54.350;10.102;2022-11-20T06:23:29;4.00;99.90
6293;DHT22;3179;54.350;10.102;2022-11-20T06:25:55;4.00;99.90
6293;DHT22;3179;54.350;10.102;2022-11-20T06:28:22;4.00;99.90
6293;DHT22;3179;54.350;10.102;2022-11-20T06:30:49;4.00;99.90
6293;DHT22;3179;54.350;10.102;2022-11-20T06:33:15;4.00;99.90
6293;DHT22;3179;54.350;10.102;2022-11-20T06:35:44;4.00;99.90
6293;DHT22;3179;54.350;10.102;2022-11-20T06:38:10;4.00;99.90
6293;DHT22;3179;54.350;10.102;2022-11-20T06:40:40;4.00;99.90
6293;DHT22;3179;54.350;10.102;2022-11-20T06:43:06;4.00;99.90
6293;DHT22;3179;54.350;10.102;2022-11-20T06:45:33;4.00;99.90
6293;DHT22;3179;54.350;10.102;2022-11-20T06:48:00;4.00;99.90
6293;DHT22;3179;54.350;10.102;2022-11-20T06:50:27;4.00;99.90
6293;DHT22;3179;54.350;10.102;2022-11-20T06:52:55;4.00;99.90
6293;DHT22;3179;54.350;10.102;2022-11-20T06:55:22;4.00;99.90
6293;DHT22;3179;54.350;10.102;2022-11-20T06:57:48;4.00;99.90
6293;DHT22;3179;54.350;10.102;2022-11-20T07:00:17;4.00;99.90
6293;DHT22;3179;54.350;10.102;2022-11-20T07:02:43;3.90;99.90
6293;DHT22;3179;54.350;10.102;2022-11-20T07:05:10;3.90;99.90
6293;DHT22;3179;54.350;10.102;2022-11-20T07:07:37;3.90;99.90
6293;DHT22;3179;54.350;10.102;2022-11-20T07:10:06;3.90;99.90
6293;DHT22;3179;54.350;10.102;2022-11-20T07:12:33;3.90;99.90
6293;DHT22;3179;54.350;10.102;2022-11-20T07:14:59;3.90;99.90
6293;DHT22;3179;54.350;10.102;2022-11-20T07:17:26;3.90;99.90
6293;DHT22;3179;54.350;10.102;2022-11-20T07:19:53;4.00;99.90
6293;DHT22;3179;54.350;10.102;2022-11-20T07:22:19;4.00;99.90
6293;DHT22;3179;54.350;10.102;2022-11-20T07:24:47;3.90;99.90
6293;DHT22;3179;54.350;10.102;2022-11-20T07:27:15;4.00;99.90
6293;DHT22;3179;54.350;10.102;2022-11-20T07:29:41;4.00;99.90
6293;DHT22;3179;54.350;10.102;2022-11-20T07:32:08;4.00;99.90
6293;DHT22;3179;54.350;10.102;2022-11-20T07:34:35;3.90;99.90
6293;DHT22;3179;54.350;10.102;2022-11-20T07:37:02;4.00;99.90
6293;DHT22;3179;54.350;10.102;2022-11-20T07:39:28;4.00;99.90
6293;DHT22;3179;54.350;10.102;2022-11-20T07:41:55;4.00;99.90
6293;DHT22;3179;54.350;10.102;2022-11-20T07:44:23;4.00;99.90
6293;DHT22;3179;54.350;10.102;2022-11-20T07:46:50;4.00;99.90
6293;DHT22;3179;54.350;10.102;2022-11-20T07:49:17;4.00;99.90
6293;DHT22;3179;54.350;10.102;2022-11-20T07:51:43;4.00;99.90
6293;DHT22;3179;54.350;10.102;2022-11-20T07:54:10;4.10;99.90
6293;DHT22;3179;54.350;10.102;2022-11-20T07:56:37;4.10;99.90
6293;DHT22;3179;54.350;10.102;2022-11-20T07:59:03;4.00;99.90
6293;DHT22;3179;54.350;10.102;2022-11-20T08:01:32;4.00;99.90
6293;DHT22;3179;54.350;10.102;2022-11-20T08:03:58;4.00;99.90
6293;DHT22;3179;54.350;10.102;2022-11-20T08:06:25;4.00;99.90
6293;DHT22;3179;54.350;10.102;2022-11-20T08:08:52;4.00;99.90
6293;DHT22;3179;54.350;10.102;2022-11-20T08:11:19;4.10;99.90
6293;DHT22;3179;54.350;10.102;2022-11-20T08:14:03;4.10;99.90
6293;DHT22;3179;54.350;10.102;2022-11-20T08:16:40;4.10;99.90
6293;DHT22;3179;54.350;10.102;2022-11-20T08:19:08;4.10;99.90
6293;DHT22;3179;54.350;10.102;2022-11-20T08:21:35;4.10;99.90
6293;DHT22;3179;54.350;10.102;2022-11-20T08:24:01;4.20;99.90
6293;DHT22;3179;54.350;10.102;2022-11-20T08:26:28;4.10;99.90
6293;DHT22;3179;54.350;10.102;2022-11-20T08:28:57;4.20;99.90
6293;DHT22;3179;54.350;10.102;2022-11-20T08:31:25;4.20;99.90
6293;DHT22;3179;54.350;10.102;2022-11-20T08:33:54;4.20;99.90
6293;DHT22;3179;54.350;10.102;2022-11-20T08:36:21;4.20;99.90
6293;DHT22;3179;54.350;10.102;2022-11-20T08:38:49;4.20;99.90
6293;DHT22;3179;54.350;10.102;2022-11-20T08:41:16;4.20;99.90
6293;DHT22;3179;54.350;10.102;2022-11-20T08:43:54;4.10;99.90
6293;DHT22;3179;54.350;10.102;2022-11-20T08:46:21;4.10;99.90
6293;DHT22;3179;54.350;10.102;2022-11-20T08:48:48;4.10;99.90
6293;DHT22;3179;54.350;10.102;2022-11-20T08:51:17;4.00;99.90
6293;DHT22;3179;54.350;10.102;2022-11-20T08:53:45;4.00;99.90
6293;DHT22;3179;54.350;10.102;2022-11-20T08:56:13;4.10;99.90
6293;DHT22;3179;54.350;10.102;2022-11-20T08:58:40;4.10;99.90
6293;DHT22;3179;54.350;10.102;2022-11-20T09:01:07;4.10;99.90
6293;DHT22;3179;54.350;10.102;2022-11-20T09:03:34;4.10;99.90
6293;DHT22;3179;54.350;10.102;2022-11-20T09:06:02;4.10;99.90
6293;DHT22;3179;54.350;10.102;2022-11-20T09:08:31;4.10;99.90
6293;DHT22;3179;54.350;10.102;2022-11-20T09:10:59;4.10;99.90
6293;DHT22;3179;54.350;10.102;2022-11-20T09:13:27;4.10;99.90
6293;DHT22;3179;54.350;10.102;2022-11-20T09:15:54;4.10;99.90
6293;DHT22;3179;54.350;10.102;2022-11-20T09:18:22;4.10;99.90
6293;DHT22;3179;54.350;10.102;2022-11-20T09:20:49;4.00;99.90
6293;DHT22;3179;54.350;10.102;2022-11-20T09:23:16;4.10;99.90
6293;DHT22;3179;54.350;10.102;2022-11-20T09:25:44;4.10;99.90
6293;DHT22;3179;54.350;10.102;2022-11-20T09:28:11;4.10;99.90
6293;DHT22;3179;54.350;10.102;2022-11-20T09:30:39;4.10;99.90
6293;DHT22;3179;54.350;10.102;2022-11-20T09:33:07;4.10;99.90
6293;DHT22;3179;54.350;10.102;2022-11-20T09:35:34;4.10;99.90
6293;DHT22;3179;54.350;10.102;2022-11-20T09:38:05;4.20;99.90
6293;DHT22;3179;54.350;10.102;2022-11-20T09:40:35;4.20;99.90
6293;DHT22;3179;54.350;10.102;2022-11-20T09:43:11;4.20;99.90
6293;DHT22;3179;54.350;10.102;2022-11-20T09:45:50;4.20;99.90
6293;DHT22;3179;54.350;10.102;2022-11-20T09:48:42;4.20;99.90
6293;DHT22;3179;54.350;10.102;2022-11-20T09:51:16;4.10;99.90
6293;DHT22;3179;54.350;10.102;2022-11-20T09:53:56;4.10;99.90
6293;DHT22;3179;54.350;10.102;2022-11-20T09:56:27;4.10;99.90
6293;DHT22;3179;54.350;10.102;2022-11-20T09:59:01;4.10;99.90
6293;DHT22;3179;54.350;10.102;2022-11-20T10:01:32;4.10;99.90
6293;DHT22;3179;54.350;10.102;2022-11-20T10:04:02;4.10;99.90
6293;DHT22;3179;54.350;10.102;2022-11-20T10:06:31;4.10;99.90
6293;DHT22;3179;54.350;10.102;2022-11-20T10:09:07;4.20;99.90
6293;DHT22;3179;54.350;10.102;2022-11-20T10:11:46;4.20;99.90
6293;DHT22;3179;54.350;10.102;2022-11-20T10:14:26;4.10;99.90
6293;DHT22;3179;54.350;10.102;2022-11-20T10:17:03;4.10;99.90
6293;DHT22;3179;54.350;10.102;2022-11-20T10:19:47;4.20;99.90
6293;DHT22;3179;54.350;10.102;2022-11-20T10:22:28;4.20;99.90
6293;DHT22;3179;54.350;10.102;2022-11-20T10:25:04;4.20;99.90
6293;DHT22;3179;54.350;10.102;2022-11-20T10:27:45;4.20;99.90
6293;DHT22;3179;54.350;10.102;2022-11-20T10:30:17;4.20;99.90
6293;DHT22;3179;54.350;10.102;2022-11-20T10:32:47;4.20;99.90
6293;DHT22;3179;54.350;10.102;2022-11-20T10:35:21;4.20;99.90
6293;DHT22;3179;54.350;10.102;2022-11-20T10:37:53;4.20;99.90
6293;DHT22;3179;54.350;10.102;2022-11-20T10:40:27;4.10;99.90
6293;DHT22;3179;54.350;10.102;2022-11-20T10:42:57;4.20;99.90
6293;DHT22;3179;54.350;10.102;2022-11-20T10:45:45;4.20;99.90
6293;DHT22;3179;54.350;10.102;2022-11-20T10:48:17;4.20;99.90
6293;DHT22;3179;54.350;10.102;2022-11-20T10:50:55;4.20;99.90
6293;DHT22;3179;54.350;10.102;2022-11-20T10:53:36;4.10;99.90
6293;DHT22;3179;54.350;10.102;2022-11-20T10:56:09;4.20;99.90
6293;DHT22;3179;54.350;10.102;2022-11-20T10:58:42;4.20;99.90
6293;DHT22;3179;54.350;10.102;2022-11-20T11:01:16;4.20;99.90
6293;DHT22;3179;54.350;10.102;2022-11-20T11:03:43;4.20;99.90
6293;DHT22;3179;54.350;10.102;2022-11-20T11:06:14;4.20;99.90
6293;DHT22;3179;54.350;10.102;2022-11-20T11:08:45;4.20;99.90
6293;DHT22;3179;54.350;10.102;2022-11-20T11:11:21;4.20;99.90
6293;DHT22;3179;54.350;10.102;2022-11-20T11:13:48;4.30;99.90
6293;DHT22;3179;54.350;10.102;2022-11-20T11:16:22;4.30;99.90
6293;DHT22;3179;54.350;10.102;2022-11-20T11:18:50;4.30;99.90
6293;DHT22;3179;54.350;10.102;2022-11-20T11:21:22;4.40;99.90
6293;DHT22;3179;54.350;10.102;2022-11-20T11:23:59;4.40;99.90
6293;DHT22;3179;54.350;10.102;2022-11-20T11:26:26;4.40;99.90
6293;DHT22;3179;54.350;10.102;2022-11-20T11:28:54;4.40;99.90
6293;DHT22;3179;54.350;10.102;2022-11-20T11:31:27;4.40;99.90
6293;DHT22;3179;54.350;10.102;2022-11-20T11:34:04;4.40;99.90
6293;DHT22;3179;54.350;10.102;2022-11-20T11:36:33;4.40;99.90
6293;DHT22;3179;54.350;10.102;2022-11-20T11:39:01;4.50;99.90
6293;DHT22;3179;54.350;10.102;2022-11-20T11:41:31;4.50;99.90
6293;DHT22;3179;54.350;10.102;2022-11-20T11:44:03;4.50;99.90
6293;DHT22;3179;54.350;10.102;2022-11-20T11:46:58;4.60;99.90
6293;DHT22;3179;54.350;10.102;2022-11-20T11:49:25;4.60;99.90
6293;DHT22;3179;54.350;10.102;2022-11-20T11:52:00;4.70;99.90
6293;DHT22;3179;54.350;10.102;2022-11-20T11:54:35;4.70;99.90
6293;DHT22;3179;54.350;10.102;2022-11-20T11:57:10;4.70;99.90
6293;DHT22;3179;54.350;10.102;2022-11-20T11:59:47;4.70;99.90
6293;DHT22;3179;54.350;10.102;2022-11-20T12:02:36;4.70;99.90
6293;DHT22;3179;54.350;10.102;2022-11-20T12:05:10;4.80;99.90
6293;DHT22;3179;54.350;10.102;2022-11-20T12:07:43;4.80;99.90
6293;DHT22;3179;54.350;10.102;2022-11-20T12:10:18;4.80;99.90
6293;DHT22;3179;54.350;10.102;2022-11-20T12:12:49;4.80;99.90
6293;DHT22;3179;54.350;10.102;2022-11-20T12:15:26;4.90;99.90
6293;DHT22;3179;54.350;10.102;2022-11-20T12:17:56;4.90;99.90
6293;DHT22;3179;54.350;10.102;2022-11-20T12:20:25;4.90;99.90
6293;DHT22;3179;54.350;10.102;2022-11-20T12:22:59;4.90;99.90
6293;DHT22;3179;54.350;10.102;2022-11-20T12:25:30;4.90;99.90
6293;DHT22;3179;54.350;10.102;2022-11-20T12:28:24;4.90;99.90
6293;DHT22;3179;54.350;10.102;2022-11-20T12:31:08;4.80;99.90
6293;DHT22;3179;54.350;10.102;2022-11-20T12:36:42;4.80;99.90
6293;DHT22;3179;54.350;10.102;2022-11-20T12:39:29;4.70;99.90
6293;DHT22;3179;54.350;10.102;2022-11-20T12:42:24;4.70;99.90
6293;DHT22;3179;54.350;10.102;2022-11-20T12:48:16;4.70;99.90
6293;DHT22;3179;54.350;10.102;2022-11-20T12:50:54;4.80;99.90
6293;DHT22;3179;54.350;10.102;2022-11-20T12:53:30;4.80;99.90
6293;DHT22;3179;54.350;10.102;2022-11-20T12:56:05;4.80;99.90
6293;DHT22;3179;54.350;10.102;2022-11-20T12:58:43;4.90;99.90
6293;DHT22;3179;54.350;10.102;2022-11-20T13:01:21;5.00;99.90
6293;DHT22;3179;54.350;10.102;2022-11-20T13:04:10;5.00;99.90
6293;DHT22;3179;54.350;10.102;2022-11-20T13:06:43;5.10;99.90
6293;DHT22;3179;54.350;10.102;2022-11-20T13:09:13;5.10;99.90
6293;DHT22;3179;54.350;10.102;2022-11-20T13:11:44;5.10;99.90
6293;DHT22;3179;54.350;10.102;2022-11-20T13:14:24;5.10;99.90
6293;DHT22;3179;54.350;10.102;2022-11-20T13:16:57;5.20;99.90
6293;DHT22;3179;54.350;10.102;2022-11-20T13:19:25;5.20;99.90
6293;DHT22;3179;54.350;10.102;2022-11-20T13:21:54;5.20;99.90
6293;DHT22;3179;54.350;10.102;2022-11-20T13:24:23;5.20;99.90
6293;DHT22;3179;54.350;10.102;2022-11-20T13:27:00;5.30;99.90
6293;DHT22;3179;54.350;10.102;2022-11-20T13:29:28;5.30;99.90
6293;DHT22;3179;54.350;10.102;2022-11-20T13:32:06;5.40;99.90
6293;DHT22;3179;54.350;10.102;2022-11-20T13:34:35;5.50;99.90
6293;DHT22;3179;54.350;10.102;2022-11-20T13:37:03;5.40;99.90
6293;DHT22;3179;54.350;10.102;2022-11-20T13:39:31;5.40;99.90
6293;DHT22;3179;54.350;10.102;2022-11-20T13:42:00;5.40;99.90
6293;DHT22;3179;54.350;10.102;2022-11-20T13:44:33;5.50;99.90
6293;DHT22;3179;54.350;10.102;2022-11-20T13:47:00;5.50;99.90
6293;DHT22;3179;54.350;10.102;2022-11-20T13:49:31;5.50;99.90
6293;DHT22;3179;54.350;10.102;2022-11-20T13:52:27;5.50;99.90
6293;DHT22;3179;54.350;10.102;2022-11-20T13:55:10;5.50;99.90
6293;DHT22;3179;54.350;10.102;2022-11-20T13:57:56;5.50;99.90
6293;DHT22;3179;54.350;10.102;2022-11-20T14:00:26;5.50;99.90
6293;DHT22;3179;54.350;10.102;2022-11-20T14:03:01;5.50;99.90
6293;DHT22;3179;54.350;10.102;2022-11-20T14:05:35;5.50;99.90
6293;DHT22;3179;54.350;10.102;2022-11-20T14:08:05;5.50;99.90
6293;DHT22;3179;54.350;10.102;2022-11-20T14:10:33;5.50;99.90
6293;DHT22;3179;54.350;10.102;2022-11-20T14:13:10;5.40;99.90
6293;DHT22;3179;54.350;10.102;2022-11-20T14:15:37;5.40;99.90
6293;DHT22;3179;54.350;10.102;2022-11-20T14:18:12;5.40;99.90
6293;DHT22;3179;54.350;10.102;2022-11-20T14:20:41;5.40;99.90
6293;DHT22;3179;54.350;10.102;2022-11-20T14:23:10;5.40;99.90
6293;DHT22;3179;54.350;10.102;2022-11-20T14:25:42;5.40;99.90
6293;DHT22;3179;54.350;10.102;2022-11-20T14:28:11;5.30;99.90
6293;DHT22;3179;54.350;10.102;2022-11-20T14:30:46;5.30;99.90
6293;DHT22;3179;54.350;10.102;2022-11-20T14:33:14;5.20;99.90
6293;DHT22;3179;54.350;10.102;2022-11-20T14:35:45;5.20;99.90
6293;DHT22;3179;54.350;10.102;2022-11-20T14:38:15;5.20;99.90
6293;DHT22;3179;54.350;10.102;2022-11-20T14:40:43;5.10;99.90
6293;DHT22;3179;54.350;10.102;2022-11-20T14:43:19;5.10;99.90
6293;DHT22;3179;54.350;10.102;2022-11-20T14:45:51;5.10;99.90
6293;DHT22;3179;54.350;10.102;2022-11-20T14:48:19;5.10;99.90
6293;DHT22;3179;54.350;10.102;2022-11-20T14:50:48;5.00;99.90
6293;DHT22;3179;54.350;10.102;2022-11-20T14:53:22;5.00;99.90
6293;DHT22;3179;54.350;10.102;2022-11-20T14:55:55;5.00;99.90
6293;DHT22;3179;54.350;10.102;2022-11-20T14:58:24;5.00;99.90
6293;DHT22;3179;54.350;10.102;2022-11-20T15:00:54;5.00;99.90
6293;DHT22;3179;54.350;10.102;2022-11-20T15:03:21;5.00;99.90
6293;DHT22;3179;54.350;10.102;2022-11-20T15:05:49;4.90;99.90
6293;DHT22;3179;54.350;10.102;2022-11-20T15:08:18;4.90;99.90
6293;DHT22;3179;54.350;10.102;2022-11-20T15:10:46;4.90;99.90
6293;DHT22;3179;54.350;10.102;2022-11-20T15:13:16;4.90;99.90
6293;DHT22;3179;54.350;10.102;2022-11-20T15:15:46;4.90;99.90
6293;DHT22;3179;54.350;10.102;2022-11-20T15:18:16;4.90;99.90
6293;DHT22;3179;54.350;10.102;2022-11-20T15:20:44;4.90;99.90
6293;DHT22;3179;54.350;10.102;2022-11-20T15:23:12;4.90;99.90
6293;DHT22;3179;54.350;10.102;2022-11-20T15:25:41;4.80;99.90
6293;DHT22;3179;54.350;10.102;2022-11-20T15:28:15;4.90;99.90
6293;DHT22;3179;54.350;10.102;2022-11-20T15:30:43;4.80;99.90
6293;DHT22;3179;54.350;10.102;2022-11-20T15:33:10;4.80;99.90
6293;DHT22;3179;54.350;10.102;2022-11-20T15:35:37;4.80;99.90
6293;DHT22;3179;54.350;10.102;2022-11-20T15:38:03;4.80;99.90
6293;DHT22;3179;54.350;10.102;2022-11-20T15:40:30;4.80;99.90
6293;DHT22;3179;54.350;10.102;2022-11-20T15:42:58;4.80;99.90
6293;DHT22;3179;54.350;10.102;2022-11-20T15:45:36;4.70;99.90
6293;DHT22;3179;54.350;10.102;2022-11-20T15:48:07;4.70;99.90
6293;DHT22;3179;54.350;10.102;2022-11-20T15:50:38;4.70;99.90
6293;DHT22;3179;54.350;10.102;2022-11-20T15:53:05;4.70;99.90
6293;DHT22;3179;54.350;10.102;2022-11-20T15:55:32;4.70;99.90
6293;DHT22;3179;54.350;10.102;2022-11-20T15:58:00;4.70;99.90
6293;DHT22;3179;54.350;10.102;2022-11-20T16:00:27;4.60;99.90
6293;DHT22;3179;54.350;10.102;2022-11-20T16:02:53;4.60;99.90
6293;DHT22;3179;54.350;10.102;2022-11-20T16:05:20;4.60;99.90
6293;DHT22;3179;54.350;10.102;2022-11-20T16:07:48;4.60;99.90
6293;DHT22;3179;54.350;10.102;2022-11-20T16:10:16;4.60;99.90
6293;DHT22;3179;54.350;10.102;2022-11-20T16:12:43;4.60;99.90
6293;DHT22;3179;54.350;10.102;2022-11-20T16:15:30;4.60;99.90
6293;DHT22;3179;54.350;10.102;2022-11-20T16:18:14;4.60;99.90
6293;DHT22;3179;54.350;10.102;2022-11-20T16:20:42;4.60;99.90
6293;DHT22;3179;54.350;10.102;2022-11-20T16:23:09;4.60;99.90
6293;DHT22;3179;54.350;10.102;2022-11-20T16:25:36;4.60;99.90
6293;DHT22;3179;54.350;10.102;2022-11-20T16:28:03;4.60;99.90